Time;durP1;ratioP1;P1;durP2;ratioP2;P2;SDS_P1;SDS_P2;PMS_P1;PMS_P2;Temp;Humidity;BMP_temperature;BMP_pressure;BME280_temperature;BME280_humidity;BME280_pressure;Samples;Min_cycle;Max_cycle;Signal;HPM_P1;HPM_P2
2022/04/16 00:00:11;;;;;;;17.97;10.40;;;;;;;;;;5055102;28;20855;-54
2022/04/16 00:02:40;;;;;;;11.03;9.53;;;;;;;;;;5054966;28;20435;-52
2022/04/16 00:05:07;;;;;;;12.90;10.07;;;;;;;;;;5055050;28;20435;-52
2022/04/16 00:07:33;;;;;;;13.00;10.20;;;;;;;;;;5054930;28;20411;-56
2022/04/16 00:09:59;;;;;;;12.70;10.57;;;;;;;;;;5054845;28;20908;-56
2022/04/16 00:12:26;;;;;;;15.07;9.90;;;;;;;;;;5054728;28;20471;-52
2022/04/16 00:14:52;;;;;;;13.47;10.00;;;;;;;;;;5054951;28;20404;-53
2022/04/16 00:17:18;;;;;;;10.37;9.30;;;;;;;;;;5054786;28;20416;-55
2022/04/16 00:19:44;;;;;;;11.10;9.37;;;;;;;;;;5053159;28;20456;-54
2022/04/16 00:22:12;;;;;;;11.13;9.90;;;;;;;;;;5054655;28;20412;-54
2022/04/16 00:24:40;;;;;;;13.40;10.00;;;;;;;;;;5054938;28;20451;-53
2022/04/16 00:27:07;;;;;;;13.40;10.47;;;;;;;;;;5054695;28;20839;-52
2022/04/16 00:29:34;;;;;;;10.70;9.60;;;;;;;;;;5053212;28;20431;-54
2022/04/16 00:32:00;;;;;;;9.43;8.53;;;;;;;;;;5054153;28;20474;-55
2022/04/16 00:34:26;;;;;;;11.90;9.40;;;;;;;;;;5054371;28;20906;-53
2022/04/16 00:36:55;;;;;;;13.37;9.00;;;;;;;;;;5054381;28;20449;-53
2022/04/16 00:39:21;;;;;;;10.53;9.43;;;;;;;;;;5054390;28;20410;-53
2022/04/16 00:41:47;;;;;;;13.30;8.87;;;;;;;;;;5054467;28;20415;-56
2022/04/16 00:44:13;;;;;;;12.07;9.30;;;;;;;;;;5054314;28;20970;-53
2022/04/16 00:46:43;;;;;;;12.17;9.73;;;;;;;;;;5054256;28;20498;-53
2022/04/16 00:49:09;;;;;;;19.20;8.77;;;;;;;;;;5054221;28;20900;-52
2022/04/16 00:51:36;;;;;;;11.27;8.93;;;;;;;;;;5054114;28;20510;-53
2022/04/16 00:54:02;;;;;;;10.37;8.50;;;;;;;;;;5052490;28;20442;-54
2022/04/16 00:56:28;;;;;;;10.30;9.20;;;;;;;;;;5054143;28;20907;-55
2022/04/16 00:58:54;;;;;;;11.90;9.10;;;;;;;;;;5053994;28;20502;-53
2022/04/16 01:01:20;;;;;;;10.23;8.90;;;;;;;;;;5054108;28;20449;-52
2022/04/16 01:03:47;;;;;;;10.93;8.53;;;;;;;;;;5054146;28;20457;-54
2022/04/16 01:06:16;;;;;;;9.93;8.63;;;;;;;;;;5053892;28;20415;-57
2022/04/16 01:08:44;;;;;;;10.90;8.07;;;;;;;;;;5052611;28;20438;-53
2022/04/16 01:11:11;;;;;;;12.77;8.33;;;;;;;;;;5053787;28;20467;-53
2022/04/16 01:13:37;;;;;;;8.40;7.60;;;;;;;;;;5052399;28;20412;-57
2022/04/16 01:16:05;;;;;;;12.57;8.07;;;;;;;;;;5053713;28;20507;-54
2022/04/16 01:18:34;;;;;;;10.10;8.50;;;;;;;;;;5053637;28;20912;-53
2022/04/16 01:21:04;;;;;;;10.20;8.37;;;;;;;;;;5053491;28;20491;-55
2022/04/16 01:23:30;;;;;;;8.83;7.60;;;;;;;;;;5053536;28;20494;-54
2022/04/16 01:25:56;;;;;;;10.30;8.13;;;;;;;;;;5053465;28;20407;-54
2022/04/16 01:28:23;;;;;;;12.83;8.20;;;;;;;;;;5053422;28;20400;-55
2022/04/16 01:30:49;;;;;;;12.17;9.03;;;;;;;;;;5053468;28;20454;-57
2022/04/16 01:33:17;;;;;;;13.27;8.00;;;;;;;;;;5052093;28;20987;-55
2022/04/16 01:35:43;;;;;;;12.63;7.83;;;;;;;;;;5053135;28;20408;-56
2022/04/16 01:38:09;;;;;;;8.00;7.30;;;;;;;;;;5053236;28;20425;-53
2022/04/16 01:40:35;;;;;;;14.67;7.80;;;;;;;;;;5051915;28;20462;-56
2022/04/16 01:43:01;;;;;;;7.30;6.63;;;;;;;;;;5053127;28;20416;-54
2022/04/16 01:45:27;;;;;;;8.03;7.30;;;;;;;;;;5051031;28;20419;-55
2022/04/16 01:47:59;;;;;;;7.30;6.80;;;;;;;;;;5051756;28;20451;-60
2022/04/16 01:50:25;;;;;;;9.00;7.03;;;;;;;;;;5052928;28;20404;-54
2022/04/16 01:52:52;;;;;;;8.20;6.60;;;;;;;;;;5053230;28;20431;-56
2022/04/16 01:55:18;;;;;;;7.90;7.13;;;;;;;;;;5051829;28;20419;-54
2022/04/16 01:57:44;;;;;;;6.90;6.30;;;;;;;;;;5053098;28;20426;-54
2022/04/16 02:00:13;;;;;;;7.87;7.00;;;;;;;;;;5052806;28;20426;-54
2022/04/16 02:02:39;;;;;;;7.63;7.03;;;;;;;;;;5049692;28;20416;-54
2022/04/16 02:05:05;;;;;;;9.40;6.57;;;;;;;;;;5042259;28;20462;-61
2022/04/16 02:07:31;;;;;;;10.17;7.07;;;;;;;;;;5041950;28;20434;-54
2022/04/16 02:09:57;;;;;;;9.67;6.63;;;;;;;;;;5041429;28;20500;-52
2022/04/16 02:12:24;;;;;;;7.20;6.30;;;;;;;;;;5042334;28;20470;-54
2022/04/16 02:14:50;;;;;;;9.33;6.77;;;;;;;;;;5043112;28;20400;-54
2022/04/16 02:17:16;;;;;;;7.67;7.00;;;;;;;;;;5041080;28;20405;-53
2022/04/16 02:19:42;;;;;;;7.73;6.97;;;;;;;;;;5042467;28;20830;-56
2022/04/16 02:22:08;;;;;;;6.60;6.00;;;;;;;;;;5042667;28;20416;-54
2022/04/16 02:24:35;;;;;;;8.80;6.40;;;;;;;;;;5040943;28;20810;-60
2022/04/16 02:27:01;;;;;;;6.57;6.00;;;;;;;;;;5042688;28;20465;-56
2022/04/16 02:29:27;;;;;;;8.00;6.10;;;;;;;;;;5042214;28;20405;-53
2022/04/16 02:31:53;;;;;;;8.93;6.23;;;;;;;;;;5052317;28;20471;-57
2022/04/16 02:34:20;;;;;;;7.07;5.97;;;;;;;;;;5052648;28;20435;-55
2022/04/16 02:36:47;;;;;;;8.43;6.53;;;;;;;;;;5051326;28;20844;-54
2022/04/16 02:39:14;;;;;;;6.80;6.10;;;;;;;;;;5052502;28;20416;-54
2022/04/16 02:41:41;;;;;;;7.53;6.30;;;;;;;;;;5052340;28;20469;-55
2022/04/16 02:47:04;;;;;;;6.80;6.30;;;;;;;;;;5052386;28;20403;-53
2022/04/16 02:47:05;;;;;;;7.50;6.27;;;;;;;;;;5052262;28;20404;-54
2022/04/16 02:49:31;;;;;;;9.23;6.07;;;;;;;;;;5052228;28;20415;-53
2022/04/16 02:51:57;;;;;;;7.30;6.50;;;;;;;;;;5052275;28;20563;-54
2022/04/16 02:54:25;;;;;;;8.83;5.80;;;;;;;;;;5052142;28;20432;-56
2022/04/16 02:56:51;;;;;;;6.53;5.90;;;;;;;;;;5055152;28;20402;-55
2022/04/16 02:59:17;;;;;;;6.80;6.20;;;;;;;;;;5055404;28;20466;-55
2022/04/16 03:01:46;;;;;;;6.80;6.30;;;;;;;;;;5056025;28;20498;-56
2022/04/16 03:04:12;;;;;;;9.77;6.70;;;;;;;;;;5056120;28;20835;-56
2022/04/16 03:06:38;;;;;;;8.43;7.00;;;;;;;;;;5055945;28;20903;-54
2022/04/16 03:09:04;;;;;;;5.70;5.30;;;;;;;;;;5054802;28;20423;-55
2022/04/16 03:11:31;;;;;;;6.33;5.70;;;;;;;;;;5054627;28;20467;-55
2022/04/16 03:17:31;;;;;;;8.10;6.40;;;;;;;;;;5050132;28;20454;-59
2022/04/16 03:19:27;;;;;;;6.63;5.90;;;;;;;;;;5046078;28;20420;-56
2022/04/16 03:21:53;;;;;;;5.80;5.40;;;;;;;;;;5044279;28;20416;-57
2022/04/16 03:24:19;;;;;;;8.80;5.50;;;;;;;;;;5039023;28;20447;-57
2022/04/16 03:26:45;;;;;;;7.13;5.47;;;;;;;;;;5035734;28;20558;-59
2022/04/16 03:29:11;;;;;;;6.27;5.57;;;;;;;;;;5035699;28;20405;-57
2022/04/16 03:31:40;;;;;;;6.80;6.10;;;;;;;;;;5035542;28;20464;-55
2022/04/16 03:34:06;;;;;;;7.97;5.57;;;;;;;;;;5035618;28;20408;-53
2022/04/16 03:36:32;;;;;;;6.57;5.73;;;;;;;;;;5035638;28;20421;-57
2022/04/16 03:38:58;;;;;;;6.03;5.63;;;;;;;;;;5035538;28;20415;-60
2022/04/16 03:41:24;;;;;;;8.10;5.87;;;;;;;;;;5035470;28;20765;-55
2022/04/16 03:43:50;;;;;;;6.83;6.13;;;;;;;;;;5035531;28;20499;-56
2022/04/16 03:46:16;;;;;;;6.13;5.50;;;;;;;;;;5035447;28;20769;-59
2022/04/16 03:48:43;;;;;;;6.53;5.93;;;;;;;;;;5050429;28;20422;-53
2022/04/16 03:51:09;;;;;;;7.00;6.30;;;;;;;;;;5053735;28;20498;-53
2022/04/16 03:53:38;;;;;;;8.20;6.70;;;;;;;;;;5055251;28;20408;-58
2022/04/16 04:01:33;;;;;;;7.60;6.80;;;;;;;;;;5055128;28;20435;-53
2022/04/16 04:03:59;;;;;;;6.27;5.77;;;;;;;;;;5055118;28;20412;-54
2022/04/16 04:06:25;;;;;;;7.03;6.40;;;;;;;;;;5055214;28;20488;-52
2022/04/16 04:08:51;;;;;;;6.87;6.30;;;;;;;;;;5054103;28;20892;-54
2022/04/16 04:11:17;;;;;;;9.03;6.63;;;;;;;;;;5054877;28;20467;-54
2022/04/16 04:13:43;;;;;;;7.10;6.40;;;;;;;;;;5054772;28;20768;-55
2022/04/16 04:16:10;;;;;;;7.20;6.20;;;;;;;;;;5054908;28;20466;-53
2022/04/16 04:18:36;;;;;;;7.20;6.37;;;;;;;;;;5054873;28;20411;-53
2022/04/16 04:21:02;;;;;;;6.77;6.17;;;;;;;;;;5053310;28;20984;-58
2022/04/16 04:23:28;;;;;;;6.73;6.27;;;;;;;;;;5054805;28;20415;-56
2022/04/16 04:25:54;;;;;;;6.10;5.60;;;;;;;;;;5054753;28;20415;-57
2022/04/16 04:28:21;;;;;;;6.97;5.50;;;;;;;;;;5054717;28;20430;-56
2022/04/16 04:30:47;;;;;;;7.37;6.30;;;;;;;;;;5054808;28;20463;-51
2022/04/16 04:33:13;;;;;;;8.07;6.10;;;;;;;;;;5053314;28;20434;-55
2022/04/16 04:35:39;;;;;;;6.23;5.63;;;;;;;;;;5054661;28;20913;-58
2022/04/16 04:38:05;;;;;;;5.90;5.50;;;;;;;;;;5054521;28;20404;-53
2022/04/16 04:40:31;;;;;;;6.47;5.97;;;;;;;;;;5054484;28;20451;-53
2022/04/16 04:42:57;;;;;;;6.07;5.57;;;;;;;;;;5054515;28;20404;-51
2022/04/16 04:45:23;;;;;;;9.13;5.77;;;;;;;;;;5054352;28;20482;-53
2022/04/16 04:47:49;;;;;;;7.17;6.10;;;;;;;;;;5053171;28;20422;-51
2022/04/16 04:50:15;;;;;;;8.70;5.87;;;;;;;;;;5054234;28;20416;-53
2022/04/16 04:52:41;;;;;;;6.13;5.73;;;;;;;;;;5052983;28;20633;-52
2022/04/16 04:55:09;;;;;;;6.27;5.77;;;;;;;;;;5054175;28;21023;-51
2022/04/16 04:57:36;;;;;;;7.23;6.50;;;;;;;;;;5053136;28;20908;-53
2022/04/16 05:00:02;;;;;;;7.10;6.20;;;;;;;;;;5054152;28;20396;-58
2022/04/16 05:02:37;;;;;;;6.83;6.23;;;;;;;;;;5052746;28;20816;-52
2022/04/16 05:05:03;;;;;;;6.33;5.77;;;;;;;;;;5053991;28;20403;-52
2022/04/16 05:07:31;;;;;;;7.33;6.23;;;;;;;;;;5053827;28;20494;-52
2022/04/16 05:09:57;;;;;;;10.23;6.10;;;;;;;;;;5053951;28;20920;-53
2022/04/16 05:12:23;;;;;;;6.47;5.83;;;;;;;;;;5053772;28;20470;-53
2022/04/16 05:14:52;;;;;;;6.47;6.00;;;;;;;;;;5053879;28;20435;-54
2022/04/16 05:17:18;;;;;;;8.43;6.30;;;;;;;;;;5053849;28;20843;-55
2022/04/16 05:19:44;;;;;;;6.10;5.60;;;;;;;;;;5052143;28;20598;-55
2022/04/16 05:22:10;;;;;;;8.03;6.00;;;;;;;;;;5053524;28;20415;-53
2022/04/16 05:24:36;;;;;;;6.57;5.97;;;;;;;;;;5053458;28;20407;-55
2022/04/16 05:27:02;;;;;;;7.07;6.47;;;;;;;;;;5053370;28;20414;-54
2022/04/16 05:29:48;;;;;;;7.33;6.23;;;;;;;;;;5053536;28;20404;-60
2022/04/16 05:32:16;;;;;;;6.50;5.90;;;;;;;;;;5044058;28;20482;-58
2022/04/16 05:34:42;;;;;;;6.50;6.10;;;;;;;;;;5032531;28;20522;-58
2022/04/16 05:37:08;;;;;;;6.60;6.00;;;;;;;;;;5032146;28;20424;-51
2022/04/16 05:39:34;;;;;;;6.93;6.23;;;;;;;;;;5033462;28;20540;-52
2022/04/16 05:42:00;;;;;;;6.80;6.30;;;;;;;;;;5033393;28;20420;-53
2022/04/16 05:44:26;;;;;;;6.53;5.93;;;;;;;;;;5032043;28;20420;-57
2022/04/16 05:46:55;;;;;;;6.30;5.70;;;;;;;;;;5048428;28;20473;-58
2022/04/16 05:49:21;;;;;;;6.90;6.10;;;;;;;;;;5046147;28;20439;-53
2022/04/16 05:51:47;;;;;;;6.43;5.73;;;;;;;;;;5057150;28;20476;-52
2022/04/16 05:54:13;;;;;;;6.20;5.70;;;;;;;;;;5039994;28;20413;-55
2022/04/16 05:56:39;;;;;;;5.57;5.07;;;;;;;;;;5032302;28;20412;-55
2022/04/16 05:59:05;;;;;;;6.63;6.03;;;;;;;;;;5033791;28;20443;-55
2022/04/16 06:01:31;;;;;;;6.20;5.60;;;;;;;;;;5038078;28;21182;-63
2022/04/16 06:03:57;;;;;;;10.03;6.10;;;;;;;;;;5043276;28;20516;-60
2022/04/16 06:06:23;;;;;;;6.83;6.23;;;;;;;;;;5049332;28;20519;-58
2022/04/16 06:08:51;;;;;;;6.60;6.00;;;;;;;;;;5049799;28;20461;-58
2022/04/16 06:11:18;;;;;;;6.83;6.23;;;;;;;;;;5043491;28;20475;-55
2022/04/16 06:13:44;;;;;;;6.13;5.73;;;;;;;;;;5049828;28;20466;-56
2022/04/16 06:16:10;;;;;;;6.77;6.23;;;;;;;;;;5051472;28;20481;-56
2022/04/16 06:18:36;;;;;;;8.37;5.90;;;;;;;;;;5050103;28;20427;-57
2022/04/16 06:21:03;;;;;;;6.40;5.90;;;;;;;;;;5044710;28;20937;-58
2022/04/16 06:23:31;;;;;;;7.07;6.47;;;;;;;;;;5044753;28;20403;-52
2022/04/16 06:25:58;;;;;;;7.63;6.87;;;;;;;;;;5050043;28;20420;-60
2022/04/16 06:28:27;;;;;;;7.27;6.53;;;;;;;;;;5042046;28;20422;-54
2022/04/16 06:30:53;;;;;;;6.30;5.90;;;;;;;;;;5048204;28;20504;-54
2022/04/16 06:33:19;;;;;;;6.90;6.30;;;;;;;;;;5039418;28;20436;-54
2022/04/16 06:35:45;;;;;;;6.80;6.20;;;;;;;;;;5047368;28;20431;-53
2022/04/16 06:38:11;;;;;;;7.13;6.43;;;;;;;;;;5050972;28;20415;-55
2022/04/16 06:40:37;;;;;;;6.43;5.93;;;;;;;;;;5050188;28;20706;-55
2022/04/16 06:43:03;;;;;;;6.80;6.30;;;;;;;;;;5031731;28;20458;-51
2022/04/16 06:45:30;;;;;;;6.50;5.90;;;;;;;;;;5031580;28;20405;-54
2022/04/16 06:47:56;;;;;;;6.87;6.20;;;;;;;;;;5042954;28;20561;-56
2022/04/16 06:50:22;;;;;;;6.23;5.73;;;;;;;;;;5051486;28;20877;-53
2022/04/16 06:52:48;;;;;;;7.00;6.30;;;;;;;;;;5051487;28;20427;-55
2022/04/16 06:55:17;;;;;;;6.97;6.33;;;;;;;;;;5051674;28;20412;-54
2022/04/16 06:57:43;;;;;;;6.70;6.10;;;;;;;;;;5048753;28;20408;-59
2022/04/16 07:00:09;;;;;;;6.37;5.97;;;;;;;;;;5051033;28;20510;-52
2022/04/16 07:02:36;;;;;;;6.43;5.93;;;;;;;;;;5051131;28;20495;-57
2022/04/16 07:05:03;;;;;;;7.23;6.63;;;;;;;;;;5051086;28;20900;-57
2022/04/16 07:07:32;;;;;;;6.70;6.10;;;;;;;;;;5051673;28;20919;-57
2022/04/16 07:09:58;;;;;;;7.17;6.47;;;;;;;;;;5050561;28;20431;-58
2022/04/16 07:12:24;;;;;;;6.47;5.87;;;;;;;;;;5048911;28;20474;-61
2022/04/16 07:14:50;;;;;;;7.53;6.80;;;;;;;;;;5051658;28;20403;-58
2022/04/16 07:17:16;;;;;;;6.50;6.00;;;;;;;;;;5051638;28;20411;-57
2022/04/16 07:19:42;;;;;;;6.73;6.17;;;;;;;;;;5050377;28;20454;-54
2022/04/16 07:22:08;;;;;;;6.37;5.97;;;;;;;;;;5050330;28;20774;-56
2022/04/16 07:24:38;;;;;;;6.57;6.07;;;;;;;;;;5051413;28;20561;-53
2022/04/16 07:27:04;;;;;;;6.67;6.13;;;;;;;;;;5051202;28;20448;-54
2022/04/16 07:29:30;;;;;;;7.00;6.43;;;;;;;;;;5047042;28;20424;-61
2022/04/16 07:31:56;;;;;;;6.20;5.70;;;;;;;;;;5031456;28;20464;-61
2022/04/16 07:34:22;;;;;;;7.03;6.33;;;;;;;;;;5031417;28;20486;-52
2022/04/16 07:36:49;;;;;;;7.07;6.47;;;;;;;;;;5031736;28;20921;-52
2022/04/16 07:39:15;;;;;;;6.90;6.33;;;;;;;;;;5031473;28;20487;-53
2022/04/16 07:41:41;;;;;;;6.57;6.17;;;;;;;;;;5030196;28;20437;-63
2022/04/16 07:44:07;;;;;;;6.47;6.07;;;;;;;;;;5041227;28;20980;-57
2022/04/16 07:46:34;;;;;;;6.97;6.30;;;;;;;;;;5053691;28;20412;-65
2022/04/16 07:49:00;;;;;;;6.20;5.80;;;;;;;;;;5055117;28;20514;-72
2022/04/16 07:51:27;;;;;;;6.80;6.30;;;;;;;;;;5054622;28;20474;-69
2022/04/16 07:53:59;;;;;;;6.80;6.30;;;;;;;;;;5053416;28;20414;-70
2022/04/16 07:56:25;;;;;;;6.67;6.07;;;;;;;;;;5054746;28;20403;-64
2022/04/16 07:58:53;;;;;;;7.07;6.40;;;;;;;;;;5054657;28;20912;-53
2022/04/16 08:01:19;;;;;;;6.30;5.80;;;;;;;;;;5054478;28;20784;-64
2022/04/16 08:03:45;;;;;;;6.70;6.10;;;;;;;;;;5053441;28;20408;-69
2022/04/16 08:06:11;;;;;;;5.87;5.57;;;;;;;;;;5054502;28;20975;-66
2022/04/16 08:08:37;;;;;;;6.40;5.50;;;;;;;;;;5054574;28;20439;-53
2022/04/16 08:11:04;;;;;;;5.70;5.20;;;;;;;;;;5054205;28;20974;-68
2022/04/16 08:13:30;;;;;;;5.30;5.00;;;;;;;;;;5054691;28;20420;-67
2022/04/16 08:15:56;;;;;;;6.13;5.53;;;;;;;;;;5054422;28;20742;-67
2022/04/16 08:18:22;;;;;;;5.50;5.20;;;;;;;;;;5054037;28;20431;-67
2022/04/16 08:20:48;;;;;;;5.17;4.80;;;;;;;;;;5054637;28;20532;-55
2022/04/16 08:23:14;;;;;;;5.13;4.70;;;;;;;;;;5054283;28;20412;-58
2022/04/16 08:28:07;;;;;;;4.93;4.63;;;;;;;;;;5054309;28;20420;-60
2022/04/16 08:30:33;;;;;;;5.00;4.67;;;;;;;;;;5039566;28;20425;-70
2022/04/16 08:33:02;;;;;;;5.37;4.93;;;;;;;;;;5032595;28;20408;-55
2022/04/16 08:35:29;;;;;;;5.77;5.07;;;;;;;;;;5044757;28;20408;-59
2022/04/16 08:37:54;;;;;;;4.80;4.60;;;;;;;;;;5053993;28;20821;-65
2022/04/16 08:40:23;;;;;;;5.53;4.90;;;;;;;;;;5053941;28;20435;-63
2022/04/16 08:42:50;;;;;;;4.87;4.43;;;;;;;;;;5054073;28;20407;-67
2022/04/16 08:45:16;;;;;;;5.50;5.00;;;;;;;;;;5053987;28;20493;-54
2022/04/16 08:47:42;;;;;;;4.93;4.73;;;;;;;;;;5053770;28;20458;-71
2022/04/16 08:50:10;;;;;;;5.80;5.07;;;;;;;;;;5054323;28;20913;-70
2022/04/16 08:52:37;;;;;;;7.37;6.60;;;;;;;;;;5051950;28;20471;-67
2022/04/16 08:55:05;;;;;;;5.40;5.07;;;;;;;;;;5053313;28;20396;-71
2022/04/16 08:57:31;;;;;;;8.33;6.60;;;;;;;;;;5053658;28;20904;-71
2022/04/16 09:00:02;;;;;;;5.27;4.97;;;;;;;;;;5053304;28;20410;-70
2022/04/16 09:02:29;;;;;;;5.90;5.40;;;;;;;;;;5053551;28;20412;-67
2022/04/16 09:05:02;;;;;;;5.30;4.93;;;;;;;;;;5053446;28;20403;-69
2022/04/16 09:07:28;;;;;;;7.83;5.10;;;;;;;;;;5053252;28;20761;-66
2022/04/16 09:09:54;;;;;;;5.00;4.70;;;;;;;;;;5053247;28;20768;-59
2022/04/16 09:12:20;;;;;;;5.57;5.07;;;;;;;;;;5053342;28;21071;-62
2022/04/16 09:14:47;;;;;;;6.27;5.80;;;;;;;;;;5053438;28;20892;-62
2022/04/16 09:17:17;;;;;;;5.67;5.30;;;;;;;;;;5053075;28;20489;-56
2022/04/16 09:19:43;;;;;;;5.20;4.90;;;;;;;;;;5052935;28;20458;-53
2022/04/16 09:22:09;;;;;;;5.10;4.90;;;;;;;;;;5052922;28;20511;-60
2022/04/16 09:24:46;;;;;;;5.60;5.20;;;;;;;;;;5053064;28;20487;-54
2022/04/16 09:27:12;;;;;;;6.10;5.40;;;;;;;;;;5052856;28;20431;-60
2022/04/16 09:29:40;;;;;;;5.20;4.80;;;;;;;;;;5048313;28;20474;-54
2022/04/16 09:32:07;;;;;;;6.00;5.50;;;;;;;;;;5033004;28;20467;-54
2022/04/16 09:34:33;;;;;;;5.00;4.80;;;;;;;;;;5033063;28;20828;-63
2022/04/16 09:37:11;;;;;;;5.20;4.90;;;;;;;;;;5033034;28;20839;-52
2022/04/16 09:39:37;;;;;;;5.10;4.70;;;;;;;;;;5031480;28;20786;-53
2022/04/16 09:42:04;;;;;;;4.80;4.60;;;;;;;;;;5032615;28;20413;-54
2022/04/16 09:44:32;;;;;;;4.87;4.67;;;;;;;;;;5051779;28;20415;-54
2022/04/16 09:46:58;;;;;;;5.10;4.70;;;;;;;;;;5052636;28;20420;-52
2022/04/16 09:49:25;;;;;;;5.03;4.63;;;;;;;;;;5052511;28;20431;-53
2022/04/16 09:51:52;;;;;;;5.20;4.90;;;;;;;;;;5052392;28;20467;-51
2022/04/16 09:54:21;;;;;;;5.77;5.43;;;;;;;;;;5051517;28;20781;-54
2022/04/16 09:56:47;;;;;;;5.00;4.80;;;;;;;;;;5052752;28;20396;-52
2022/04/16 09:59:14;;;;;;;5.27;4.97;;;;;;;;;;5051235;28;20431;-61
2022/04/16 10:01:50;;;;;;;6.93;6.43;;;;;;;;;;5032475;28;20423;-51
2022/04/16 10:04:17;;;;;;;5.30;5.00;;;;;;;;;;5032494;28;20408;-55
2022/04/16 10:06:44;;;;;;;6.20;5.80;;;;;;;;;;5031849;28;20682;-51
2022/04/16 10:09:13;;;;;;;5.63;5.10;;;;;;;;;;5032561;28;20420;-54
2022/04/16 10:12:59;;;;;;;6.63;5.40;;;;;;;;;;5032533;28;20474;-55
2022/04/16 10:14:50;;;;;;;5.40;5.00;;;;;;;;;;5032329;28;20776;-69
2022/04/16 10:17:39;;;;;;;4.70;4.50;;;;;;;;;;5041348;28;20427;-54
2022/04/16 10:20:09;;;;;;;5.33;4.90;;;;;;;;;;5052068;28;20478;-54
2022/04/16 10:22:35;;;;;;;5.90;5.50;;;;;;;;;;5052103;28;20404;-56
2022/04/16 10:25:01;;;;;;;5.60;5.30;;;;;;;;;;5052048;28;20904;-63
2022/04/16 10:27:29;;;;;;;5.47;5.00;;;;;;;;;;5052092;28;20400;-65
2022/04/16 10:30:02;;;;;;;5.47;4.83;;;;;;;;;;5045044;28;20421;-54
2022/04/16 10:32:38;;;;;;;5.00;4.60;;;;;;;;;;5032297;28;20503;-52
2022/04/16 10:35:05;;;;;;;5.30;4.90;;;;;;;;;;5047983;28;20425;-54
2022/04/16 10:37:37;;;;;;;5.27;4.87;;;;;;;;;;5052197;28;20420;-61
2022/04/16 10:40:13;;;;;;;5.00;4.60;;;;;;;;;;5051196;28;20738;-57
2022/04/16 10:42:46;;;;;;;5.33;4.97;;;;;;;;;;5052049;28;20934;-66
2022/04/16 10:45:12;;;;;;;4.60;4.30;;;;;;;;;;5051719;28;20437;-68
2022/04/16 10:47:42;;;;;;;5.27;4.90;;;;;;;;;;5051981;28;20419;-53
2022/04/16 10:50:15;;;;;;;4.93;4.70;;;;;;;;;;5051836;28;20403;-58
2022/04/16 10:52:51;;;;;;;4.70;4.43;;;;;;;;;;5030715;28;20534;-64
2022/04/16 10:55:20;;;;;;;4.97;4.23;;;;;;;;;;5031014;28;20499;-53
2022/04/16 10:57:55;;;;;;;4.97;4.77;;;;;;;;;;5032209;28;20508;-52
2022/04/16 11:00:21;;;;;;;4.70;4.30;;;;;;;;;;5031773;28;20440;-54
2022/04/16 11:02:47;;;;;;;4.40;4.10;;;;;;;;;;5030747;28;20456;-53
2022/04/16 11:05:13;;;;;;;4.67;4.40;;;;;;;;;;5031708;28;20439;-54
2022/04/16 11:07:40;;;;;;;4.77;4.47;;;;;;;;;;5035752;28;20431;-58
2022/04/16 11:10:10;;;;;;;4.20;4.00;;;;;;;;;;5050325;28;20426;-54
2022/04/16 11:12:44;;;;;;;4.80;4.50;;;;;;;;;;5051431;28;20474;-55
2022/04/16 11:15:15;;;;;;;4.83;4.50;;;;;;;;;;5051941;28;20807;-54
2022/04/16 11:17:41;;;;;;;4.50;4.20;;;;;;;;;;5052809;28;20434;-55
2022/04/16 11:20:08;;;;;;;4.90;4.60;;;;;;;;;;5055205;28;20541;-55
2022/04/16 11:22:34;;;;;;;4.97;4.60;;;;;;;;;;5055567;28;20416;-52
2022/04/16 11:25:06;;;;;;;4.37;4.17;;;;;;;;;;5055044;28;20422;-56
2022/04/16 11:35:54;;;;;;;4.23;4.03;;;;;;;;;;5035628;28;20411;-53
2022/04/16 11:38:30;;;;;;;4.87;4.50;;;;;;;;;;5035315;28;20420;-56
2022/04/16 11:40:59;;;;;;;4.90;4.50;;;;;;;;;;5035256;28;20412;-57
2022/04/16 11:43:28;;;;;;;4.20;4.00;;;;;;;;;;5053763;28;20950;-58
2022/04/16 11:45:55;;;;;;;4.53;4.33;;;;;;;;;;5054852;28;20502;-55
2022/04/16 11:48:21;;;;;;;4.53;4.13;;;;;;;;;;5055118;28;20414;-55
2022/04/16 11:50:48;;;;;;;4.67;4.47;;;;;;;;;;5054876;28;20412;-56
2022/04/16 11:53:14;;;;;;;4.70;4.50;;;;;;;;;;5053331;28;20428;-52
2022/04/16 11:55:51;;;;;;;4.40;4.20;;;;;;;;;;5054691;28;20915;-58
2022/04/16 11:58:17;;;;;;;4.40;4.20;;;;;;;;;;5054461;28;20468;-54
2022/04/16 12:00:51;;;;;;;4.73;4.53;;;;;;;;;;5054508;28;20410;-57
2022/04/16 12:03:17;;;;;;;4.90;4.60;;;;;;;;;;5054688;28;20407;-58
2022/04/16 12:05:44;;;;;;;4.80;4.50;;;;;;;;;;5054690;28;20446;-62
2022/04/16 12:08:11;;;;;;;4.73;4.13;;;;;;;;;;5054476;28;20411;-56
2022/04/16 12:10:37;;;;;;;4.23;4.03;;;;;;;;;;5054445;28;20431;-53
2022/04/16 12:13:13;;;;;;;4.73;4.53;;;;;;;;;;5054389;28;20399;-57
2022/04/16 12:15:43;;;;;;;4.70;4.50;;;;;;;;;;5054279;28;20417;-51
2022/04/16 12:18:10;;;;;;;4.10;3.97;;;;;;;;;;5054437;28;20400;-54
2022/04/16 12:20:43;;;;;;;4.53;4.33;;;;;;;;;;5054161;28;20471;-54
2022/04/16 12:23:14;;;;;;;4.30;4.10;;;;;;;;;;5054207;28;20400;-52
2022/04/16 12:25:43;;;;;;;6.83;4.03;;;;;;;;;;5054266;28;20419;-57
2022/04/16 12:28:11;;;;;;;4.30;4.10;;;;;;;;;;5053320;28;20942;-57
2022/04/16 12:30:37;;;;;;;4.20;4.00;;;;;;;;;;5040989;28;20519;-56
2022/04/16 12:33:11;;;;;;;4.50;4.20;;;;;;;;;;5041498;28;20427;-52
2022/04/16 12:35:41;;;;;;;4.30;4.20;;;;;;;;;;5054095;28;20412;-54
2022/04/16 12:38:07;;;;;;;3.60;3.50;;;;;;;;;;5053923;28;20551;-54
2022/04/16 12:40:34;;;;;;;4.00;3.80;;;;;;;;;;5053740;28;20495;-54
2022/04/16 12:43:00;;;;;;;4.20;3.90;;;;;;;;;;5053910;28;20404;-54
2022/04/16 12:45:28;;;;;;;4.20;3.90;;;;;;;;;;5052678;28;20423;-55
2022/04/16 12:47:54;;;;;;;4.20;3.90;;;;;;;;;;5052502;28;20411;-59
2022/04/16 12:50:20;;;;;;;4.30;4.00;;;;;;;;;;5053795;28;20416;-55
2022/04/16 12:52:47;;;;;;;4.20;3.80;;;;;;;;;;5053812;28;20604;-58
2022/04/16 12:55:13;;;;;;;4.50;4.20;;;;;;;;;;5053542;28;20396;-59
2022/04/16 12:57:40;;;;;;;3.80;3.70;;;;;;;;;;5053783;28;20400;-55
2022/04/16 13:00:09;;;;;;;4.20;4.00;;;;;;;;;;5053592;28;20395;-54
2022/04/16 13:02:35;;;;;;;4.30;4.10;;;;;;;;;;5053707;28;20399;-52
2022/04/16 13:05:01;;;;;;;3.97;3.80;;;;;;;;;;5053281;28;20978;-60
2022/04/16 13:07:30;;;;;;;3.53;3.43;;;;;;;;;;5051791;28;20428;-54
2022/04/16 13:09:56;;;;;;;4.47;4.20;;;;;;;;;;5053335;28;20411;-63
2022/04/16 13:12:22;;;;;;;3.70;3.40;;;;;;;;;;5053289;28;20478;-55
2022/04/16 13:14:48;;;;;;;3.90;3.70;;;;;;;;;;5053616;28;20177;-53
2022/04/16 13:17:14;;;;;;;3.60;3.50;;;;;;;;;;5053167;28;20423;-53
2022/04/16 13:19:41;;;;;;;3.50;3.40;;;;;;;;;;5053019;28;20481;-61
2022/04/16 13:22:08;;;;;;;3.57;3.40;;;;;;;;;;5053266;28;20466;-65
2022/04/16 13:24:36;;;;;;;3.73;3.60;;;;;;;;;;5051430;28;20412;-71
2022/04/16 13:27:03;;;;;;;3.23;3.13;;;;;;;;;;5053234;28;20465;-63
2022/04/16 13:29:29;;;;;;;3.77;3.47;;;;;;;;;;5044449;28;20412;-70
2022/04/16 13:31:56;;;;;;;4.07;3.77;;;;;;;;;;5032707;28;20980;-69
2022/04/16 13:34:22;;;;;;;3.83;3.60;;;;;;;;;;5032948;28;20405;-64
2022/04/16 13:36:48;;;;;;;3.40;3.30;;;;;;;;;;5033247;28;20409;-68
2022/04/16 13:41:59;;;;;;;3.50;3.30;;;;;;;;;;5047645;28;20422;-70
2022/04/16 13:44:26;;;;;;;3.40;3.20;;;;;;;;;;5052596;28;20900;-66
2022/04/16 13:46:53;;;;;;;3.17;3.07;;;;;;;;;;5052817;28;20422;-56
2022/04/16 13:49:19;;;;;;;7.03;3.20;;;;;;;;;;5052764;28;20466;-59
2022/04/16 13:51:45;;;;;;;3.70;3.40;;;;;;;;;;5052916;28;20896;-68
2022/04/16 13:54:11;;;;;;;4.10;3.90;;;;;;;;;;5052632;28;20503;-58
2022/04/16 13:56:37;;;;;;;4.43;3.60;;;;;;;;;;5051606;28;20416;-68
2022/04/16 13:59:05;;;;;;;2.97;2.87;;;;;;;;;;5052381;28;20888;-68
2022/04/16 14:01:31;;;;;;;3.37;3.27;;;;;;;;;;5052317;28;20419;-70
2022/04/16 14:03:57;;;;;;;3.27;3.17;;;;;;;;;;5052410;28;20967;-65
2022/04/16 14:06:23;;;;;;;3.80;3.60;;;;;;;;;;5052334;28;20503;-68
2022/04/16 14:08:49;;;;;;;3.53;3.23;;;;;;;;;;5052410;28;20443;-67
2022/04/16 14:11:15;;;;;;;3.50;3.20;;;;;;;;;;5052268;28;20455;-60
2022/04/16 14:13:42;;;;;;;4.90;3.10;;;;;;;;;;5052289;28;20408;-64
2022/04/16 14:16:11;;;;;;;5.93;3.10;;;;;;;;;;5051994;28;20573;-68
2022/04/16 14:18:38;;;;;;;2.90;2.80;;;;;;;;;;5052133;28;20737;-66
2022/04/16 14:21:11;;;;;;;3.90;3.70;;;;;;;;;;5050861;28;20565;-62
2022/04/16 14:23:37;;;;;;;5.63;3.20;;;;;;;;;;5052010;28;20400;-68
2022/04/16 14:26:03;;;;;;;3.17;3.07;;;;;;;;;;5052530;28;20415;-68
2022/04/16 14:28:29;;;;;;;3.40;3.10;;;;;;;;;;5051768;28;20399;-61
2022/04/16 14:30:57;;;;;;;3.70;2.80;;;;;;;;;;5032025;28;20765;-70
2022/04/16 14:33:23;;;;;;;3.13;3.00;;;;;;;;;;5050338;28;20420;-68
2022/04/16 14:35:49;;;;;;;3.80;2.63;;;;;;;;;;5050708;28;20461;-68
2022/04/16 14:38:16;;;;;;;3.23;2.97;;;;;;;;;;5052149;28;20416;-65
2022/04/16 14:40:42;;;;;;;2.90;2.60;;;;;;;;;;5051967;28;20757;-70
2022/04/16 14:43:09;;;;;;;3.80;2.90;;;;;;;;;;5052003;28;20430;-63
2022/04/16 14:45:36;;;;;;;2.60;2.40;;;;;;;;;;5051891;28;20430;-70
2022/04/16 14:48:05;;;;;;;3.33;3.07;;;;;;;;;;5050717;28;20416;-68
2022/04/16 14:50:31;;;;;;;3.20;3.00;;;;;;;;;;5052043;28;20420;-63
2022/04/16 14:52:57;;;;;;;2.80;2.70;;;;;;;;;;5054862;28;20463;-72
2022/04/16 14:55:23;;;;;;;3.13;2.90;;;;;;;;;;5056150;28;20411;-61
2022/04/16 14:57:49;;;;;;;3.37;2.90;;;;;;;;;;5056128;28;20800;-59
2022/04/16 15:00:16;;;;;;;2.80;2.60;;;;;;;;;;5056029;28;20880;-58
2022/04/16 15:02:42;;;;;;;3.63;3.33;;;;;;;;;;5054567;28;20416;-63